Time;durP1;ratioP1;P1;durP2;ratioP2;P2;SDS_P1;SDS_P2;PMS_P1;PMS_P2;Temp;Humidity;BMP_temperature;BMP_pressure;BME280_temperature;BME280_humidity;BME280_pressure;Samples;Min_cycle;Max_cycle;Signal;HPM_P1;HPM_P2
2022/12/17 13:08:19;;;;;;;48.23;22.67;;;-2.70;99.90;;;;;;5004931;28;20233;-62
2022/12/17 13:10:46;;;;;;;53.43;22.10;;;-2.60;99.90;;;;;;4983196;28;20323;-62
2022/12/17 13:13:24;;;;;;;45.53;22.40;;;-2.60;99.90;;;;;;5005377;28;20237;-63
2022/12/17 13:15:55;;;;;;;52.03;22.10;;;-2.50;99.90;;;;;;4998090;28;21051;-62
2022/12/17 13:18:29;;;;;;;61.93;23.10;;;-2.50;99.90;;;;;;5002689;28;20691;-61
2022/12/17 13:20:59;;;;;;;48.50;23.20;;;-2.50;99.90;;;;;;4965528;28;20454;-61
2022/12/17 13:23:30;;;;;;;52.50;20.43;;;-2.50;99.90;;;;;;4984716;28;20300;-62
2022/12/17 13:26:19;;;;;;;58.83;21.63;;;-2.50;99.90;;;;;;4969184;28;20237;-61
2022/12/17 13:28:58;;;;;;;51.07;21.03;;;-2.50;99.90;;;;;;4992459;28;21022;-61
2022/12/17 13:31:27;;;;;;;49.13;19.17;;;-2.40;99.90;;;;;;4989411;28;23567;-61
2022/12/17 13:34:06;;;;;;;50.77;19.63;;;-2.50;99.90;;;;;;4994417;28;20228;-61
2022/12/17 13:36:44;;;;;;;47.30;20.03;;;-2.40;99.90;;;;;;4980585;28;20225;-61
2022/12/17 13:39:32;;;;;;;56.20;21.30;;;-2.40;99.90;;;;;;4998490;28;20212;-61
2022/12/17 13:41:59;;;;;;;50.50;20.53;;;-2.30;99.90;;;;;;4987167;28;20205;-61
2022/12/17 13:44:30;;;;;;;46.23;20.57;;;-2.30;99.90;;;;;;4995042;28;20209;-61
2022/12/17 13:46:57;;;;;;;46.67;20.47;;;-2.30;99.90;;;;;;4974919;28;20206;-61
2022/12/17 13:49:26;;;;;;;47.00;19.43;;;-2.40;99.90;;;;;;4977618;28;20233;-61
2022/12/17 13:52:04;;;;;;;44.70;19.57;;;-2.30;99.90;;;;;;4968295;28;20227;-61
2022/12/17 13:54:31;;;;;;;35.87;15.73;;;-2.30;99.90;;;;;;4957205;28;20208;-61
2022/12/17 13:57:08;;;;;;;44.80;18.30;;;-2.20;99.90;;;;;;4944324;28;20208;-61
2022/12/17 13:59:35;;;;;;;48.57;19.00;;;-2.20;99.90;;;;;;5007581;23;20318;-62
2022/12/17 14:02:04;;;;;;;51.30;19.53;;;-2.20;99.90;;;;;;5038454;28;20204;-61
2022/12/17 14:04:33;;;;;;;42.83;17.17;;;-2.30;99.90;;;;;;4995872;28;20231;-62
2022/12/17 14:07:03;;;;;;;38.80;17.03;;;-2.30;99.90;;;;;;4991629;28;20240;-61
2022/12/17 14:09:33;;;;;;;51.87;19.03;;;-2.30;99.90;;;;;;5008072;28;20217;-62
2022/12/17 14:12:22;;;;;;;44.87;16.90;;;-2.20;99.90;;;;;;4975957;28;20225;-61
2022/12/17 14:14:53;;;;;;;48.63;20.67;;;-2.20;99.90;;;;;;4987459;28;20226;-62
2022/12/17 14:17:21;;;;;;;48.63;20.00;;;-2.30;99.90;;;;;;4993366;28;20214;-62
2022/12/17 14:19:56;;;;;;;55.37;19.73;;;-2.30;99.90;;;;;;5010143;28;20730;-61
2022/12/17 14:22:31;;;;;;;50.73;19.43;;;-2.30;99.90;;;;;;4990278;28;21090;-62
2022/12/17 14:24:58;;;;;;;55.07;19.97;;;-2.30;99.90;;;;;;5013044;28;20224;-61
2022/12/17 14:27:30;;;;;;;55.90;20.17;;;-2.30;99.90;;;;;;4972082;28;20778;-62
2022/12/17 14:29:57;;;;;;;46.80;19.93;;;-2.30;99.90;;;;;;5003190;28;20232;-61
2022/12/17 14:32:26;;;;;;;52.07;19.43;;;-2.20;99.90;;;;;;5005593;28;20236;-62
2022/12/17 14:34:54;;;;;;;45.37;18.77;;;-2.30;99.90;;;;;;5013633;28;20212;-62
2022/12/17 14:37:24;;;;;;;50.50;19.80;;;-2.20;99.90;;;;;;5006928;28;20573;-62
2022/12/17 14:39:55;;;;;;;49.90;20.83;;;-2.30;99.90;;;;;;4998441;28;20750;-63
2022/12/17 14:42:28;;;;;;;66.13;22.30;;;-2.30;99.90;;;;;;4966170;28;20964;-63
2022/12/17 14:44:57;;;;;;;49.70;20.37;;;-2.20;99.90;;;;;;4996013;28;20218;-63
2022/12/17 14:47:26;;;;;;;49.90;20.93;;;-2.20;99.90;;;;;;4973513;28;20646;-62
2022/12/17 14:50:07;;;;;;;54.10;20.67;;;-2.20;99.90;;;;;;4968353;28;20335;-62
2022/12/17 14:52:41;;;;;;;46.77;18.20;;;-2.20;99.90;;;;;;4978922;28;21204;-62
2022/12/17 14:55:34;;;;;;;47.93;19.17;;;-2.20;99.90;;;;;;4996316;28;20568;-62
2022/12/17 14:58:23;;;;;;;58.53;19.53;;;-2.10;99.90;;;;;;4995596;28;20232;-62
2022/12/17 15:00:53;;;;;;;50.77;18.77;;;-2.20;99.90;;;;;;5012382;28;20236;-62
2022/12/17 15:03:26;;;;;;;51.53;18.87;;;-2.10;99.90;;;;;;4994424;28;20254;-62
2022/12/17 15:05:58;;;;;;;52.83;19.47;;;-2.20;99.90;;;;;;4986891;28;20256;-62
2022/12/17 15:08:34;;;;;;;48.50;19.23;;;-2.10;99.90;;;;;;4986882;28;20222;-62
2022/12/17 15:11:01;;;;;;;47.13;18.50;;;-2.20;99.90;;;;;;5000597;28;20235;-62
2022/12/17 15:13:28;;;;;;;52.60;20.20;;;-2.10;99.90;;;;;;4974462;28;20230;-61
2022/12/17 15:15:55;;;;;;;54.20;18.87;;;-2.10;99.90;;;;;;5007343;28;20226;-62
2022/12/17 15:18:22;;;;;;;54.77;19.67;;;-2.10;99.90;;;;;;4995287;28;20260;-62
2022/12/17 15:20:49;;;;;;;50.57;19.20;;;-2.20;99.90;;;;;;4991418;28;20900;-62
2022/12/17 15:23:19;;;;;;;45.30;20.30;;;-2.20;99.90;;;;;;4995921;28;20229;-62
2022/12/17 15:25:48;;;;;;;58.43;20.60;;;-2.20;99.90;;;;;;4998510;28;20659;-62
2022/12/17 15:28:16;;;;;;;58.20;21.07;;;-2.20;99.90;;;;;;4982739;28;20451;-63
2022/12/17 15:30:43;;;;;;;59.63;22.37;;;-2.10;99.90;;;;;;5012094;28;20720;-62
2022/12/17 15:33:11;;;;;;;51.87;19.07;;;-2.20;99.90;;;;;;5001561;28;20202;-62
2022/12/17 15:35:39;;;;;;;52.70;21.20;;;-2.10;99.90;;;;;;4983344;28;20202;-62
2022/12/17 15:38:07;;;;;;;52.23;19.37;;;-2.20;99.90;;;;;;4999075;28;20193;-62
2022/12/17 15:40:36;;;;;;;45.10;18.37;;;-2.20;99.90;;;;;;4991408;28;20201;-62
2022/12/17 15:43:12;;;;;;;43.87;17.97;;;-2.20;99.90;;;;;;5001960;28;20228;-62
2022/12/17 15:45:40;;;;;;;51.07;20.07;;;-2.20;99.90;;;;;;5008951;28;20227;-63
2022/12/17 15:48:08;;;;;;;52.10;19.83;;;-2.20;99.90;;;;;;5020158;28;20814;-62
2022/12/17 15:50:35;;;;;;;53.00;20.47;;;-2.20;99.90;;;;;;4980498;28;20225;-63
2022/12/17 15:53:02;;;;;;;41.70;19.57;;;-2.20;99.90;;;;;;5001679;28;20221;-62
2022/12/17 15:55:29;;;;;;;56.33;20.93;;;-2.20;99.90;;;;;;4998594;28;20218;-63
2022/12/17 15:57:58;;;;;;;59.47;19.53;;;-2.20;99.90;;;;;;5002078;28;20712;-63
2022/12/17 16:00:25;;;;;;;52.03;20.47;;;-2.30;99.90;;;;;;4985583;28;20599;-63
2022/12/17 16:02:52;;;;;;;48.47;18.23;;;-2.20;99.90;;;;;;5007294;28;20537;-63
2022/12/17 16:05:19;;;;;;;47.93;18.60;;;-2.20;99.90;;;;;;4995582;28;20524;-63
2022/12/17 16:07:46;;;;;;;49.03;18.00;;;-2.30;99.90;;;;;;4997574;28;20285;-63
2022/12/17 16:10:14;;;;;;;43.83;18.20;;;-2.20;99.90;;;;;;4993749;28;20826;-64
2022/12/17 16:12:41;;;;;;;49.67;18.57;;;-2.30;99.90;;;;;;5006297;28;20233;-62
2022/12/17 16:15:11;;;;;;;52.43;18.90;;;-2.20;99.90;;;;;;4973388;28;20588;-63
2022/12/17 16:17:38;;;;;;;47.63;19.20;;;-2.30;99.90;;;;;;5013192;28;20224;-62
2022/12/17 16:20:06;;;;;;;48.47;20.47;;;-2.20;99.90;;;;;;5023652;28;20821;-62
2022/12/17 16:22:33;;;;;;;57.03;20.40;;;-2.20;99.90;;;;;;4987707;28;20221;-63
2022/12/17 16:25:00;;;;;;;51.93;18.87;;;-2.30;99.90;;;;;;5000234;28;20221;-63
2022/12/17 16:27:27;;;;;;;55.13;20.03;;;-2.20;99.90;;;;;;4999573;28;20602;-62
2022/12/17 16:29:54;;;;;;;49.97;20.60;;;-2.00;99.90;;;;;;4977687;28;20469;-62
2022/12/17 16:32:22;;;;;;;55.70;19.20;;;-2.20;99.90;;;;;;4999310;28;20213;-62
2022/12/17 16:34:49;;;;;;;56.27;20.17;;;-2.20;99.90;;;;;;4994335;28;20217;-62
2022/12/17 16:37:16;;;;;;;54.00;20.57;;;-2.30;99.90;;;;;;4978675;28;20701;-63
2022/12/17 16:39:42;;;;;;;55.47;21.13;;;-2.30;99.90;;;;;;4997376;28;20237;-63
2022/12/17 16:42:10;;;;;;;56.57;19.33;;;-2.30;99.90;;;;;;4976640;28;20740;-63
2022/12/17 16:44:37;;;;;;;59.37;19.37;;;-2.20;99.90;;;;;;5002139;28;20209;-63
2022/12/17 16:47:04;;;;;;;49.30;19.50;;;-2.40;99.90;;;;;;4983774;28;20208;-62
2022/12/17 16:49:32;;;;;;;47.00;18.67;;;-2.30;99.90;;;;;;5005441;28;20222;-63
2022/12/17 16:52:00;;;;;;;57.57;19.90;;;-2.30;99.90;;;;;;5003203;28;20842;-63
2022/12/17 16:54:31;;;;;;;49.93;18.70;;;-2.40;99.90;;;;;;5003459;28;20232;-60
2022/12/17 16:56:58;;;;;;;56.97;20.33;;;-2.40;99.90;;;;;;4994832;28;20521;-62
2022/12/17 16:59:25;;;;;;;55.73;20.20;;;-2.40;99.90;;;;;;4987408;28;20228;-63
2022/12/17 17:01:52;;;;;;;56.43;20.60;;;-2.40;99.90;;;;;;4973821;28;20222;-60
2022/12/17 17:04:21;;;;;;;59.90;21.30;;;-2.40;99.90;;;;;;5018254;28;20403;-60
2022/12/17 17:06:52;;;;;;;61.87;23.90;;;-2.40;99.90;;;;;;5005204;28;20206;-60
2022/12/17 17:09:19;;;;;;;62.23;21.40;;;-2.40;99.90;;;;;;4992273;28;20979;-60
2022/12/17 17:11:46;;;;;;;55.70;21.07;;;-2.40;99.90;;;;;;4998270;28;20221;-60
2022/12/17 17:14:13;;;;;;;52.53;19.57;;;-2.50;99.90;;;;;;4996180;28;20240;-61
2022/12/17 17:16:40;;;;;;;58.77;20.73;;;-2.50;99.90;;;;;;4969715;28;20236;-61
2022/12/17 17:19:07;;;;;;;46.90;18.47;;;-2.50;99.90;;;;;;4996508;28;20446;-61
2022/12/17 17:21:37;;;;;;;56.97;20.27;;;-2.50;99.90;;;;;;5008942;28;20223;-61
2022/12/17 17:24:08;;;;;;;50.73;19.03;;;-2.40;99.90;;;;;;4977907;28;20623;-61
2022/12/17 17:26:35;;;;;;;42.47;18.17;;;-2.40;99.90;;;;;;5005463;28;20641;-61
2022/12/17 17:29:03;;;;;;;49.63;17.30;;;-2.50;99.90;;;;;;5003958;28;20221;-62
2022/12/17 17:31:30;;;;;;;52.07;18.10;;;-2.50;99.90;;;;;;5007965;28;20338;-61
2022/12/17 17:33:57;;;;;;;37.10;15.87;;;-2.50;99.90;;;;;;4977038;28;20872;-61
2022/12/17 17:36:26;;;;;;;34.63;16.60;;;-2.60;99.90;;;;;;5014695;28;20278;-61
2022/12/17 17:38:54;;;;;;;33.23;16.00;;;-2.60;99.90;;;;;;5001839;28;20226;-61
2022/12/17 17:41:24;;;;;;;37.53;15.30;;;-2.70;99.90;;;;;;4989074;28;20224;-61
2022/12/17 17:43:53;;;;;;;38.40;15.47;;;-2.70;99.90;;;;;;5002020;28;20719;-61
2022/12/17 17:46:21;;;;;;;36.13;14.37;;;-2.70;99.90;;;;;;5004455;28;20646;-61
2022/12/17 17:48:49;;;;;;;31.57;14.03;;;-2.70;99.90;;;;;;5004174;23;20869;-62
2022/12/17 17:51:17;;;;;;;28.00;13.07;;;-2.60;99.90;;;;;;5034149;28;20744;-63
2022/12/17 17:53:45;;;;;;;37.43;15.17;;;-2.70;99.90;;;;;;5024474;28;20252;-62
2022/12/17 17:56:14;;;;;;;33.70;14.50;;;-2.70;99.90;;;;;;5018158;28;20329;-62
2022/12/17 17:58:43;;;;;;;34.30;14.20;;;-2.70;99.90;;;;;;5014349;28;20232;-62
2022/12/17 18:01:12;;;;;;;35.03;15.13;;;-2.80;99.90;;;;;;5009505;28;20415;-62
2022/12/17 18:03:39;;;;;;;33.50;14.50;;;-2.80;99.90;;;;;;5004562;28;20219;-62
2022/12/17 18:06:07;;;;;;;34.70;14.40;;;-2.80;99.90;;;;;;5030739;28;20216;-61
2022/12/17 18:08:35;;;;;;;39.23;13.40;;;-2.80;99.90;;;;;;5040913;28;20204;-61
2022/12/17 18:11:05;;;;;;;29.37;12.70;;;-2.80;99.90;;;;;;5034701;28;20220;-62
2022/12/17 18:16:19;;;;;;;42.20;14.57;;;-2.80;99.90;;;;;;5022270;28;20331;-62
2022/12/17 18:18:46;;;;;;;26.37;14.13;;;-2.70;99.90;;;;;;5040738;28;20231;-61
2022/12/17 18:21:15;;;;;;;35.43;14.37;;;-2.70;99.90;;;;;;5006164;28;20227;-62
2022/12/17 18:23:42;;;;;;;34.00;15.07;;;-2.80;99.90;;;;;;5032838;28;20687;-62
2022/12/17 18:26:11;;;;;;;32.13;14.73;;;-2.80;99.90;;;;;;5036728;28;20216;-62
2022/12/17 18:28:38;;;;;;;28.93;13.13;;;-2.80;99.90;;;;;;5017794;28;20301;-63
2022/12/17 18:31:07;;;;;;;29.47;14.33;;;-2.70;99.90;;;;;;5012441;28;20724;-63
2022/12/17 18:33:36;;;;;;;32.17;13.87;;;-2.70;99.90;;;;;;5041638;28;20557;-61
2022/12/17 18:36:09;;;;;;;33.47;16.13;;;-2.80;99.90;;;;;;5013048;28;20220;-62
2022/12/17 18:38:36;;;;;;;37.73;15.73;;;-2.80;99.90;;;;;;5040590;28;20227;-62
2022/12/17 18:43:21;;;;;;;35.03;15.17;;;-2.80;99.90;;;;;;5025110;28;20260;-62
2022/12/17 18:43:55;;;;;;;32.33;13.47;;;-2.80;99.90;;;;;;5022852;28;20319;-62
2022/12/17 18:46:22;;;;;;;32.40;14.80;;;-2.80;99.90;;;;;;5026595;28;20216;-62
2022/12/17 18:48:52;;;;;;;36.13;14.73;;;-2.90;99.90;;;;;;5040392;28;20224;-62
2022/12/17 18:51:20;;;;;;;31.50;13.93;;;-2.90;99.90;;;;;;5015681;28;20232;-62
2022/12/17 18:53:46;;;;;;;29.03;13.80;;;-2.90;99.90;;;;;;5042767;28;20205;-62
2022/12/17 18:56:13;;;;;;;32.40;13.77;;;-2.90;99.90;;;;;;5034533;28;20219;-62
2022/12/17 18:58:40;;;;;;;30.87;14.00;;;-2.90;99.90;;;;;;5026664;28;20605;-62
2022/12/17 19:01:07;;;;;;;30.20;13.30;;;-2.90;99.90;;;;;;5022806;28;20205;-62
2022/12/17 19:03:34;;;;;;;36.63;14.57;;;-2.90;99.90;;;;;;5029250;28;20205;-62
2022/12/17 19:06:06;;;;;;;33.33;14.03;;;-2.90;99.90;;;;;;5002717;28;20205;-62
2022/12/17 19:08:35;;;;;;;30.03;13.67;;;-2.90;99.90;;;;;;5038042;28;20239;-62
2022/12/17 19:11:06;;;;;;;30.33;15.10;;;-2.90;99.90;;;;;;5030611;28;20321;-62
2022/12/17 19:13:33;;;;;;;33.00;15.23;;;-3.00;99.90;;;;;;5026688;28;20240;-62
2022/12/17 19:16:05;;;;;;;29.90;14.00;;;-3.00;99.90;;;;;;5040638;28;20204;-62
2022/12/17 19:18:32;;;;;;;36.30;15.80;;;-3.10;99.90;;;;;;5032213;28;20200;-62
2022/12/17 19:20:59;;;;;;;35.47;15.33;;;-3.10;99.90;;;;;;5034131;28;20201;-62
2022/12/17 19:23:31;;;;;;;36.83;14.77;;;-3.10;99.90;;;;;;5013954;28;20203;-62
2022/12/17 19:26:04;;;;;;;30.47;14.07;;;-3.10;99.90;;;;;;5038699;28;20202;-62
2022/12/17 19:28:30;;;;;;;31.73;14.50;;;-3.10;99.90;;;;;;5034412;28;20204;-62
2022/12/17 19:30:57;;;;;;;35.87;14.53;;;-3.10;99.90;;;;;;5023404;28;20207;-62
2022/12/17 19:33:24;;;;;;;35.77;15.80;;;-3.10;99.90;;;;;;5018781;28;20744;-61
2022/12/17 19:35:51;;;;;;;40.20;16.83;;;-3.10;99.90;;;;;;5026848;28;22370;-62
2022/12/17 19:38:17;;;;;;;29.40;15.73;;;-3.10;99.90;;;;;;5009883;28;20896;-62
2022/12/17 19:40:50;;;;;;;40.50;15.47;;;-3.10;99.90;;;;;;5013548;28;20224;-62
2022/12/17 19:43:17;;;;;;;40.13;15.60;;;-3.00;99.90;;;;;;5045566;28;20664;-62
2022/12/17 19:45:44;;;;;;;40.37;14.77;;;-3.10;99.90;;;;;;5026118;28;20221;-61
2022/12/17 19:48:13;;;;;;;45.43;17.63;;;-3.20;99.90;;;;;;5038976;28;20202;-62
2022/12/17 19:50:40;;;;;;;40.57;17.20;;;-3.10;99.90;;;;;;5004510;28;20354;-62
2022/12/17 19:53:07;;;;;;;39.67;16.47;;;-3.30;99.90;;;;;;5008380;28;20239;-62
2022/12/17 19:55:34;;;;;;;40.27;16.10;;;-3.20;99.90;;;;;;5035545;28;20210;-62
2022/12/17 19:58:02;;;;;;;35.47;15.97;;;-3.30;99.90;;;;;;5034456;28;20207;-62
2022/12/17 20:00:29;;;;;;;46.67;19.00;;;-3.30;99.90;;;;;;5025103;28;20815;-62
2022/12/17 20:02:55;;;;;;;43.97;17.43;;;-3.30;99.90;;;;;;5037018;28;20209;-63
2022/12/17 20:05:22;;;;;;;42.93;17.50;;;-3.30;99.90;;;;;;5018589;28;20634;-62
2022/12/17 20:07:49;;;;;;;42.73;17.90;;;-3.30;99.90;;;;;;4995547;28;20790;-63
2022/12/17 20:10:16;;;;;;;48.40;18.33;;;-3.30;99.90;;;;;;5015710;28;20572;-61
2022/12/17 20:12:42;;;;;;;46.90;17.67;;;-3.20;99.90;;;;;;5026444;28;20224;-60
2022/12/17 20:15:11;;;;;;;45.23;17.27;;;-3.30;99.90;;;;;;5032595;28;20197;-61
2022/12/17 20:17:38;;;;;;;43.03;15.87;;;-3.30;99.90;;;;;;5001534;28;20580;-62
2022/12/17 20:20:05;;;;;;;43.10;18.00;;;-3.30;99.90;;;;;;5025916;28;20201;-63
2022/12/17 20:22:32;;;;;;;36.10;16.97;;;-3.30;99.90;;;;;;5014910;28;20204;-63
2022/12/17 20:25:00;;;;;;;49.50;19.63;;;-3.20;99.90;;;;;;5011073;28;20215;-62
2022/12/17 20:27:27;;;;;;;42.50;18.23;;;-3.30;99.90;;;;;;5017439;28;20202;-62
2022/12/17 20:29:54;;;;;;;42.57;17.10;;;-3.20;99.90;;;;;;5030742;28;20201;-62
2022/12/17 20:32:22;;;;;;;42.53;17.43;;;-3.20;99.90;;;;;;5021549;28;20236;-62
2022/12/17 20:34:49;;;;;;;34.83;16.17;;;-3.20;99.90;;;;;;5020501;28;20479;-63
2022/12/17 20:37:16;;;;;;;54.83;17.50;;;-3.20;99.90;;;;;;5035931;28;20209;-63
2022/12/17 20:39:42;;;;;;;45.83;18.63;;;-3.20;99.90;;;;;;4995546;28;20710;-62
2022/12/17 20:42:09;;;;;;;52.40;17.53;;;-3.20;99.90;;;;;;5024735;28;20572;-63
2022/12/17 20:44:36;;;;;;;53.90;20.87;;;-3.20;99.90;;;;;;5026816;28;20258;-62
2022/12/17 20:47:03;;;;;;;48.93;18.77;;;-3.20;99.90;;;;;;5009464;28;20228;-62
2022/12/17 20:49:32;;;;;;;54.30;21.13;;;-3.30;99.90;;;;;;5007126;28;20733;-62
2022/12/17 20:51:59;;;;;;;49.37;20.87;;;-3.20;99.90;;;;;;5003293;28;20274;-62
2022/12/17 20:54:25;;;;;;;55.93;20.50;;;-3.20;99.90;;;;;;4988090;28;27677;-62
2022/12/17 20:56:52;;;;;;;43.00;18.60;;;-3.30;99.90;;;;;;5005625;28;20231;-62
2022/12/17 20:59:19;;;;;;;49.40;17.93;;;-3.30;99.90;;;;;;5022137;28;20231;-62
2022/12/17 21:01:47;;;;;;;40.50;16.57;;;-3.30;99.90;;;;;;5019870;28;20204;-62
2022/12/17 21:04:15;;;;;;;41.83;16.17;;;-3.30;99.90;;;;;;5018079;28;20205;-62
2022/12/17 21:06:44;;;;;;;43.50;16.43;;;-3.30;99.90;;;;;;5006846;28;20223;-62
2022/12/17 21:09:12;;;;;;;54.13;18.57;;;-3.40;99.90;;;;;;5031463;28;20201;-62
2022/12/17 21:11:40;;;;;;;45.47;17.67;;;-3.40;99.90;;;;;;5003499;28;20262;-63
2022/12/17 21:14:10;;;;;;;38.23;15.70;;;-3.40;99.90;;;;;;5037868;28;20548;-62
2022/12/17 21:16:38;;;;;;;44.13;16.83;;;-3.50;99.90;;;;;;5022391;28;20884;-62
2022/12/17 21:19:08;;;;;;;40.70;15.77;;;-3.50;99.90;;;;;;5021549;28;20589;-63
2022/12/17 21:21:37;;;;;;;49.43;16.33;;;-3.50;99.90;;;;;;5013344;28;20618;-62
2022/12/17 21:24:06;;;;;;;38.27;15.10;;;-3.60;99.90;;;;;;5006356;28;20205;-62
2022/12/17 21:26:34;;;;;;;40.40;15.77;;;-3.50;99.90;;;;;;5002092;28;20230;-63
2022/12/17 21:29:03;;;;;;;39.13;15.27;;;-3.60;99.90;;;;;;5009260;28;20224;-63
2022/12/17 21:31:31;;;;;;;38.30;15.40;;;-3.70;99.90;;;;;;5016059;28;20308;-62
2022/12/17 21:34:01;;;;;;;36.83;15.73;;;-3.80;99.90;;;;;;5024226;28;20239;-62
2022/12/17 21:36:29;;;;;;;41.80;15.60;;;-3.80;99.90;;;;;;5021719;28;20208;-62
2022/12/17 21:38:57;;;;;;;40.03;15.93;;;-3.80;99.90;;;;;;5021835;28;20212;-62
2022/12/17 21:41:27;;;;;;;34.80;14.53;;;-3.90;99.90;;;;;;5005152;28;20220;-63
2022/12/17 21:43:55;;;;;;;34.50;15.63;;;-3.90;99.90;;;;;;5012539;28;21076;-62
2022/12/17 21:46:22;;;;;;;34.03;15.97;;;-4.00;99.90;;;;;;5036372;28;20206;-62
2022/12/17 21:48:50;;;;;;;43.40;15.30;;;-4.00;99.90;;;;;;5030101;28;20246;-62
2022/12/17 21:51:17;;;;;;;49.33;14.83;;;-4.10;99.90;;;;;;5040655;28;20212;-62
2022/12/17 21:53:44;;;;;;;35.97;13.53;;;-4.20;99.90;;;;;;5024301;28;20241;-62
2022/12/17 21:56:13;;;;;;;30.37;12.77;;;-4.30;99.90;;;;;;5012726;28;22226;-63
2022/12/17 21:58:42;;;;;;;36.13;14.53;;;-4.20;99.90;;;;;;5028971;28;20856;-63
2022/12/17 22:01:11;;;;;;;25.83;13.57;;;-4.30;99.90;;;;;;5022823;28;21604;-63
2022/12/17 22:03:37;;;;;;;31.70;13.67;;;-4.30;99.90;;;;;;5038820;28;20203;-62
2022/12/17 22:06:09;;;;;;;32.43;13.43;;;-4.20;99.90;;;;;;5028257;28;20689;-63
2022/12/17 22:08:37;;;;;;;25.57;12.73;;;-4.20;99.90;;;;;;5027721;28;20200;-62
2022/12/17 22:11:09;;;;;;;28.77;11.53;;;-4.20;99.90;;;;;;5035750;28;20580;-61
2022/12/17 22:16:23;;;;;;;31.03;13.90;;;-4.20;99.90;;;;;;5032971;28;20218;-61
2022/12/17 22:18:50;;;;;;;28.27;12.70;;;-4.10;99.90;;;;;;5029369;28;20676;-62
2022/12/17 22:21:17;;;;;;;32.57;13.03;;;-4.10;99.90;;;;;;5039019;28;20212;-62
2022/12/17 22:23:46;;;;;;;30.13;14.43;;;-4.20;99.90;;;;;;5029683;28;20851;-62
2022/12/17 22:26:14;;;;;;;29.83;13.67;;;-4.20;99.90;;;;;;5045263;28;20619;-62
2022/12/17 22:28:41;;;;;;;31.47;12.30;;;-4.20;99.90;;;;;;5013071;28;20231;-62
2022/12/17 22:33:57;;;;;;;25.70;12.10;;;-4.20;99.90;;;;;;5032026;28;20273;-62
2022/12/17 22:36:24;;;;;;;27.17;12.30;;;-4.20;99.90;;;;;;5034916;28;20231;-62
2022/12/17 22:38:51;;;;;;;31.33;13.87;;;-4.20;99.90;;;;;;5035642;28;20205;-62
2022/12/17 22:44:00;;;;;;;29.27;13.10;;;-4.20;99.90;;;;;;5015104;28;22963;-63
2022/12/17 22:46:27;;;;;;;31.10;12.33;;;-4.20;99.90;;;;;;5034275;28;20229;-62
2022/12/17 22:48:55;;;;;;;31.43;12.77;;;-4.20;99.90;;;;;;5037708;28;20706;-62
2022/12/17 22:51:26;;;;;;;36.57;14.17;;;-4.20;99.90;;;;;;5029700;28;20307;-62
2022/12/17 22:53:53;;;;;;;33.00;13.53;;;-4.20;99.90;;;;;;5035192;28;20222;-62
2022/12/17 22:56:21;;;;;;;33.37;15.17;;;-4.30;99.90;;;;;;5048751;28;20222;-62
2022/12/17 22:58:48;;;;;;;30.60;13.17;;;-4.30;99.90;;;;;;5044815;28;20195;-62
2022/12/17 23:01:15;;;;;;;31.23;13.40;;;-4.50;99.90;;;;;;5002195;28;20229;-62
2022/12/17 23:03:42;;;;;;;33.00;13.67;;;-4.40;99.90;;;;;;5036663;28;20201;-62
2022/12/17 23:06:10;;;;;;;32.63;13.40;;;-4.40;99.90;;;;;;5025043;28;20202;-63
2022/12/17 23:08:40;;;;;;;33.40;13.80;;;-4.30;99.90;;;;;;5040506;28;21434;-62
2022/12/17 23:11:07;;;;;;;38.57;15.30;;;-4.30;99.90;;;;;;5043790;28;20203;-63
2022/12/17 23:13:34;;;;;;;35.73;13.57;;;-4.30;99.90;;;;;;5045323;28;20227;-61
2022/12/17 23:16:02;;;;;;;39.63;14.47;;;-4.30;99.90;;;;;;5016992;28;20227;-63
2022/12/17 23:18:29;;;;;;;26.57;12.80;;;-4.40;99.90;;;;;;5034209;28;20205;-62
2022/12/17 23:20:55;;;;;;;43.33;14.63;;;-4.40;99.90;;;;;;5037151;28;20209;-62
2022/12/17 23:23:22;;;;;;;35.73;13.67;;;-4.40;99.90;;;;;;5020683;28;21105;-62
2022/12/17 23:25:51;;;;;;;38.37;13.27;;;-4.50;99.90;;;;;;5043738;28;20208;-62
2022/12/17 23:28:18;;;;;;;37.80;16.73;;;-4.60;99.90;;;;;;5031849;28;20208;-63
2022/12/17 23:30:45;;;;;;;48.20;19.93;;;-4.60;99.90;;;;;;5012874;28;20701;-62
2022/12/17 23:33:12;;;;;;;46.40;18.60;;;-4.50;99.90;;;;;;5030020;28;20234;-62
2022/12/17 23:35:39;;;;;;;35.33;15.07;;;-4.60;99.90;;;;;;5034800;28;20216;-63
2022/12/17 23:38:05;;;;;;;31.50;14.17;;;-4.60;99.90;;;;;;5029147;28;20207;-62
2022/12/17 23:40:32;;;;;;;24.73;12.30;;;-4.60;99.90;;;;;;5038727;28;20894;-62
2022/12/17 23:43:00;;;;;;;30.70;12.97;;;-4.70;99.90;;;;;;5048445;28;20676;-62
2022/12/17 23:45:27;;;;;;;27.20;12.67;;;-4.60;99.90;;;;;;5015292;28;20301;-63
2022/12/17 23:47:56;;;;;;;23.53;12.17;;;-4.60;99.90;;;;;;5017075;28;20234;-62
2022/12/17 23:50:23;;;;;;;31.83;12.00;;;-4.60;99.90;;;;;;5043149;28;20234;-61
2022/12/17 23:52:49;;;;;;;34.53;13.23;;;-4.60;99.90;;;;;;5020396;28;20233;-62
2022/12/17 23:55:16;;;;;;;31.03;12.27;;;-4.60;99.90;;;;;;5049742;28;20199;-62
2022/12/17 23:57:43;;;;;;;36.93;12.63;;;-4.60;99.90;;;;;;5031467;28;20194;-69
